createdAt,value
2019-06-20T00:00:42.748Z,70.90
2019-06-20T00:03:12.987Z,70.50
2019-06-20T00:05:43.301Z,70.40
2019-06-20T00:08:13.782Z,71.10
2019-06-20T00:10:45.909Z,71.50
2019-06-20T00:13:16.536Z,71.40
2019-06-20T00:15:46.658Z,71.00
2019-06-20T00:18:16.988Z,70.50
2019-06-20T00:20:47.352Z,70.30
2019-06-20T00:23:17.643Z,70.60
2019-06-20T00:25:47.766Z,71.50
2019-06-20T00:28:19.527Z,71.70
2019-06-20T00:30:49.650Z,72.40
2019-06-20T00:33:23.047Z,72.50
2019-06-20T00:35:53.683Z,73.40
2019-06-20T00:38:23.805Z,73.80
2019-06-20T00:40:58.841Z,74.20
2019-06-20T00:43:29.070Z,74.50
2019-06-20T00:45:59.190Z,74.10
2019-06-20T00:48:29.414Z,74.30
2019-06-20T00:50:59.742Z,74.50
2019-06-20T00:53:29.968Z,74.40
2019-06-20T00:56:00.197Z,74.10
2019-06-20T00:58:30.521Z,74.00
2019-06-20T01:01:00.746Z,74.60
2019-06-20T01:03:32.507Z,74.60
2019-06-20T01:06:27.254Z,74.20
2019-06-20T01:08:59.161Z,74.20
2019-06-20T01:11:31.124Z,73.00
2019-06-20T01:14:03.275Z,73.20
2019-06-20T01:16:33.536Z,73.00
2019-06-20T01:19:03.827Z,72.50
2019-06-20T01:21:34.047Z,72.30
2019-06-20T01:24:05.472Z,71.60
2019-06-20T01:26:36.169Z,72.20
2019-06-20T01:29:06.582Z,71.90
2019-06-20T01:31:36.791Z,72.20
2019-06-20T01:34:07.092Z,73.30
2019-06-20T01:36:37.375Z,73.00
2019-06-20T01:39:08.666Z,73.50
2019-06-20T01:41:40.515Z,73.90
2019-06-20T01:44:10.931Z,74.20
2019-06-20T01:46:41.256Z,74.60
2019-06-20T01:49:14.338Z,74.90
2019-06-20T01:51:45.852Z,75.40
2019-06-20T01:54:18.838Z,76.20
2019-06-20T01:56:49.119Z,76.10
2019-06-20T01:59:41.936Z,75.30
2019-06-20T02:02:12.234Z,75.10
2019-06-20T02:04:42.621Z,74.90
2019-06-20T02:07:14.902Z,74.50
2019-06-20T02:09:45.430Z,75.00
2019-06-20T02:12:15.805Z,75.50
2019-06-20T02:14:46.169Z,76.40
2019-06-20T02:17:16.398Z,76.80
2019-06-20T02:19:46.749Z,76.50
2019-06-20T02:22:17.047Z,76.30
2019-06-20T02:24:47.392Z,76.20
2019-06-20T02:27:17.741Z,76.20
2019-06-20T02:29:48.041Z,76.60
2019-06-20T02:32:21.430Z,76.20
2019-06-20T02:34:51.832Z,76.90
2019-06-20T02:37:22.154Z,76.50
2019-06-20T02:39:52.494Z,77.00
2019-06-20T02:42:27.067Z,77.40
2019-06-20T02:44:57.458Z,77.70
2019-06-20T02:47:28.248Z,77.50
2019-06-20T02:50:00.150Z,78.00
2019-06-20T02:52:30.532Z,77.90
2019-06-20T02:55:00.949Z,78.20
2019-06-20T02:57:31.360Z,77.60
2019-06-20T03:00:01.888Z,77.00
2019-06-20T03:02:34.465Z,77.20
2019-06-20T03:05:09.455Z,78.00
2019-06-20T03:07:39.876Z,78.10
2019-06-20T03:10:11.519Z,78.00
2019-06-20T03:12:42.154Z,78.20
2019-06-20T03:15:14.555Z,78.70
2019-06-20T03:17:44.825Z,78.20
2019-06-20T03:20:15.157Z,78.70
2019-06-20T03:22:47.130Z,77.80
2019-06-20T03:25:21.050Z,78.00
2019-06-20T03:27:52.890Z,77.90
2019-06-20T03:30:24.995Z,77.60
2019-06-20T03:32:56.813Z,77.30
2019-06-20T03:35:27.322Z,77.00
2019-06-20T03:37:59.367Z,76.60
2019-06-20T03:40:29.999Z,76.40
2019-06-20T03:43:00.528Z,77.10
2019-06-20T03:45:31.164Z,77.20
2019-06-20T03:48:01.590Z,77.40
2019-06-20T03:50:34.368Z,76.70
2019-06-20T03:53:05.003Z,77.50
2019-06-20T03:55:37.069Z,77.40
2019-06-20T03:58:07.699Z,76.60
2019-06-20T04:00:41.605Z,75.30
2019-06-20T04:03:12.033Z,75.90
2019-06-20T04:05:47.701Z,75.30
2019-06-20T04:08:17.979Z,75.20
2019-06-20T04:10:48.092Z,74.80
2019-06-20T04:13:18.283Z,75.30
2019-06-20T04:15:52.858Z,74.70
2019-06-20T04:18:22.963Z,74.80
2019-06-20T04:20:53.000Z,75.20
2019-06-20T04:23:24.878Z,75.20
2019-06-20T04:25:58.059Z,76.30
2019-06-20T04:28:29.470Z,75.70
2019-06-20T04:30:59.652Z,75.50
2019-06-20T04:33:32.781Z,75.60
2019-06-20T04:36:05.789Z,75.60
2019-06-20T04:38:35.933Z,76.70
2019-06-20T04:41:08.819Z,77.10
2019-06-20T04:43:39.048Z,77.20
2019-06-20T04:46:20.120Z,76.60
2019-06-20T04:48:51.060Z,77.10
2019-06-20T04:51:21.285Z,77.20
2019-06-20T04:53:51.510Z,76.80
2019-06-20T04:56:22.661Z,76.40
2019-06-20T04:58:55.954Z,75.90
2019-06-20T05:01:25.359Z,76.40
2019-06-20T05:04:01.418Z,76.30
2019-06-20T05:06:41.179Z,76.80
2019-06-20T05:09:11.181Z,77.40
2019-06-20T05:11:41.834Z,77.60
2019-06-20T05:14:31.486Z,78.00
2019-06-20T05:17:07.002Z,78.20
2019-06-20T05:19:34.293Z,76.80
2019-06-20T05:22:05.311Z,74.80
2019-06-20T05:24:37.195Z,73.60
2019-06-20T05:27:15.755Z,73.90
2019-06-20T05:29:46.037Z,75.90
2019-06-20T05:32:18.112Z,77.10
2019-06-20T05:34:52.004Z,77.10
2019-06-20T05:37:22.240Z,77.50
2019-06-20T05:39:52.364Z,77.40
2019-06-20T05:42:22.593Z,78.10
2019-06-20T05:44:54.352Z,77.50
2019-06-20T05:47:24.474Z,77.50
2019-06-20T05:49:55.015Z,77.50
2019-06-20T05:52:25.435Z,77.10
2019-06-20T05:54:57.742Z,77.50
2019-06-20T05:57:29.264Z,77.60
2019-06-20T06:00:08.373Z,77.30
2019-06-20T06:02:37.927Z,77.80
2019-06-20T06:05:08.141Z,78.30
2019-06-20T06:07:38.250Z,78.00
2019-06-20T06:10:10.216Z,78.00
2019-06-20T06:12:40.442Z,78.10
2019-06-20T06:15:14.350Z,78.30
2019-06-20T06:17:46.215Z,77.70
2019-06-20T06:20:18.178Z,77.70
2019-06-20T06:22:48.393Z,77.50
2019-06-20T06:25:20.985Z,76.40
2019-06-20T06:27:51.107Z,76.80
2019-06-20T06:30:22.769Z,76.80
2019-06-20T06:32:56.195Z,76.70
2019-06-20T06:35:26.388Z,75.30
2019-06-20T06:37:57.229Z,75.90
2019-06-20T06:40:28.378Z,75.80
2019-06-20T06:42:58.807Z,75.70
2019-06-20T06:45:29.133Z,75.10
2019-06-20T06:47:59.359Z,74.90
2019-06-20T06:50:29.791Z,75.30
2019-06-20T06:53:00.026Z,75.60
2019-06-20T06:55:30.135Z,76.30
2019-06-20T06:58:00.373Z,75.40
2019-06-20T07:00:32.415Z,75.40
2019-06-20T07:03:22.129Z,75.50
2019-06-20T07:05:52.450Z,74.70
2019-06-20T07:08:22.854Z,74.70
2019-06-20T07:10:54.675Z,73.10
2019-06-20T07:13:24.976Z,72.30
2019-06-20T07:15:55.280Z,72.10
2019-06-20T07:18:25.586Z,72.10
2019-06-20T07:20:55.898Z,71.70
2019-06-20T07:23:26.306Z,71.40
2019-06-20T07:25:56.528Z,70.50
2019-06-20T07:28:27.236Z,70.80
2019-06-20T07:30:57.554Z,70.50
2019-06-20T07:33:27.952Z,70.40
2019-06-20T07:35:58.245Z,70.00
2019-06-20T07:38:28.534Z,69.80
2019-06-20T07:40:58.856Z,70.60
2019-06-20T07:43:29.619Z,69.00
2019-06-20T07:46:03.026Z,69.90
2019-06-20T07:48:31.976Z,70.10
2019-06-20T07:51:04.528Z,69.90
2019-06-20T07:53:34.838Z,70.10
2019-06-20T07:56:05.085Z,70.20
2019-06-20T07:58:35.400Z,71.00
2019-06-20T08:01:05.838Z,70.50
2019-06-20T08:03:36.208Z,70.30
2019-06-20T08:06:10.738Z,68.50
2019-06-20T08:08:41.033Z,67.80
2019-06-20T08:11:11.458Z,69.10
2019-06-20T08:13:41.796Z,70.00
2019-06-20T08:16:12.215Z,68.60
2019-06-20T08:18:42.555Z,69.10
2019-06-20T08:21:12.800Z,69.30
2019-06-20T08:23:43.137Z,68.30
2019-06-20T08:26:13.508Z,68.10
2019-06-20T08:28:45.310Z,68.40
2019-06-20T08:31:15.549Z,68.00
2019-06-20T08:33:45.795Z,64.90
2019-06-20T08:36:16.093Z,65.40
2019-06-20T08:38:47.895Z,66.60
2019-06-20T08:41:18.195Z,65.40
2019-06-20T08:43:49.025Z,64.50
2019-06-20T08:46:22.126Z,63.10
2019-06-20T08:48:52.577Z,62.60
2019-06-20T08:51:23.089Z,62.50
2019-06-20T08:53:55.730Z,60.40
2019-06-20T08:56:25.542Z,61.20
2019-06-20T08:59:00.579Z,62.70
2019-06-20T09:01:32.052Z,62.70
2019-06-20T09:04:05.634Z,61.80
2019-06-20T09:06:36.123Z,58.30
2019-06-20T09:09:08.087Z,58.20
2019-06-20T09:11:40.055Z,55.10
2019-06-20T09:14:10.456Z,56.70
2019-06-20T09:16:42.700Z,55.70
2019-06-20T09:19:13.836Z,55.50
2019-06-20T09:21:44.822Z,57.10
2019-06-20T09:24:15.662Z,55.70
2019-06-20T09:26:47.735Z,55.00
2019-06-20T09:29:18.047Z,53.20
2019-06-20T09:31:48.953Z,54.80
2019-06-20T09:34:19.750Z,54.10
2019-06-20T09:36:51.988Z,53.30
2019-06-20T09:39:24.399Z,51.60
2019-06-20T09:41:56.577Z,50.50
2019-06-20T09:44:26.999Z,49.50
2019-06-20T09:46:58.222Z,48.80
2019-06-20T09:49:30.156Z,48.70
2019-06-20T09:52:00.539Z,48.40
2019-06-20T09:54:30.887Z,47.00
2019-06-20T09:57:04.329Z,48.10
2019-06-20T09:59:34.579Z,46.90
2019-06-20T10:02:05.246Z,44.40
2019-06-20T10:04:35.551Z,44.70
2019-06-20T10:07:05.850Z,45.10
2019-06-20T10:09:36.679Z,44.20
2019-06-20T10:12:07.075Z,44.30
2019-06-20T10:14:37.365Z,43.70
2019-06-20T10:17:07.636Z,41.80
2019-06-20T10:19:38.351Z,41.40
2019-06-20T10:22:08.677Z,41.20
2019-06-20T10:24:39.070Z,41.60
2019-06-20T10:27:30.231Z,40.00
2019-06-20T10:30:13.513Z,39.60
2019-06-20T10:32:32.521Z,38.40
2019-06-20T10:35:04.223Z,37.60
2019-06-20T10:37:34.594Z,38.90
2019-06-20T10:40:07.799Z,37.20
2019-06-20T10:42:39.234Z,38.00
2019-06-20T10:45:10.491Z,37.80
2019-06-20T10:47:43.574Z,36.50
2019-06-20T10:50:13.339Z,36.30
2019-06-20T10:52:43.731Z,36.80
2019-06-20T10:55:14.593Z,34.70
2019-06-20T10:57:44.917Z,34.40
2019-06-20T11:00:30.871Z,35.60
2019-06-20T11:02:49.045Z,33.40
2019-06-20T11:05:20.682Z,33.80
2019-06-20T11:07:51.232Z,34.70
2019-06-20T11:10:23.685Z,34.30
2019-06-20T11:12:56.453Z,34.30
2019-06-20T11:15:32.345Z,34.40
2019-06-20T11:18:02.756Z,36.30
2019-06-20T11:20:33.167Z,34.70
2019-06-20T11:23:05.026Z,34.60
2019-06-20T11:25:48.287Z,34.30
2019-06-20T11:28:21.233Z,34.20
2019-06-20T11:31:03.342Z,33.50
2019-06-20T11:33:36.663Z,33.50
2019-06-20T11:36:07.582Z,34.50
2019-06-20T11:38:39.029Z,34.60
2019-06-20T11:41:15.057Z,33.90
2019-06-20T11:43:42.223Z,33.50
2019-06-20T11:46:12.816Z,33.50
2019-06-20T11:48:43.122Z,32.40
2019-06-20T11:51:13.420Z,32.80
2019-06-20T11:53:43.669Z,31.70
2019-06-20T11:56:15.920Z,33.20
2019-06-20T11:58:45.943Z,32.80
2019-06-20T12:01:17.283Z,32.10
2019-06-20T12:03:48.918Z,32.40
2019-06-20T12:06:19.510Z,31.10
2019-06-20T12:08:49.853Z,31.70
2019-06-20T12:11:21.954Z,32.10
2019-06-20T12:13:52.257Z,31.50
2019-06-20T12:16:22.705Z,30.00
2019-06-20T12:18:53.131Z,30.30
2019-06-20T12:25:26.202Z,30.00
2019-06-20T12:27:56.132Z,29.80
2019-06-20T12:30:28.213Z,28.20
2019-06-20T12:33:02.131Z,27.90
2019-06-20T12:35:39.529Z,27.30
2019-06-20T12:38:18.122Z,27.90
2019-06-20T12:40:50.553Z,26.70
2019-06-20T12:43:20.900Z,26.90
2019-06-20T12:45:52.566Z,26.70
2019-06-20T12:48:24.367Z,26.40
2019-06-20T12:50:54.889Z,26.80
2019-06-20T12:53:25.100Z,26.10
2019-06-20T12:55:55.309Z,26.80
2019-06-20T12:58:25.610Z,26.60
2019-06-20T13:00:56.383Z,26.10
2019-06-20T13:03:26.733Z,26.00
2019-06-20T13:05:58.043Z,25.40
2019-06-20T13:08:28.344Z,25.90
2019-06-20T13:11:00.096Z,26.10
2019-06-20T13:13:33.093Z,26.00
2019-06-20T13:16:03.446Z,26.30
2019-06-20T13:18:34.822Z,26.40
2019-06-20T13:21:05.192Z,27.10
2019-06-20T13:23:39.759Z,26.30
2019-06-20T13:26:09.741Z,25.70
2019-06-20T13:28:58.944Z,26.30
2019-06-20T13:31:14.901Z,27.40
2019-06-20T13:33:45.195Z,26.50
2019-06-20T13:36:15.942Z,27.20
2019-06-20T13:38:46.716Z,26.80
2019-06-20T13:41:17.058Z,27.10
2019-06-20T13:43:47.460Z,26.70
2019-06-20T13:46:17.828Z,25.80
2019-06-20T13:48:48.147Z,25.60
2019-06-20T13:51:21.157Z,25.70
2019-06-20T13:53:51.608Z,25.00
2019-06-20T13:56:24.970Z,25.00
2019-06-20T13:58:55.342Z,25.60
2019-06-20T14:01:25.665Z,25.60
2019-06-20T14:03:59.041Z,26.10
2019-06-20T14:06:29.264Z,25.80
2019-06-20T14:09:00.109Z,25.50
2019-06-20T14:11:30.470Z,25.30
2019-06-20T14:14:00.806Z,25.80
2019-06-20T14:16:32.296Z,25.80
2019-06-20T14:19:02.559Z,26.40
2019-06-20T14:21:34.888Z,27.20
2019-06-20T14:24:27.124Z,26.40
2019-06-20T14:26:58.481Z,26.50
2019-06-20T14:29:30.093Z,26.50
2019-06-20T14:32:00.474Z,25.80
2019-06-20T14:34:32.263Z,26.70
2019-06-20T14:37:02.917Z,26.60
2019-06-20T14:39:34.201Z,26.40
2019-06-20T14:42:06.066Z,25.90
2019-06-20T14:44:36.449Z,26.50
2019-06-20T14:47:11.134Z,26.20
2019-06-20T14:49:41.628Z,27.00
2019-06-20T14:52:13.362Z,25.90
2019-06-20T14:54:44.527Z,26.00
2019-06-20T14:57:18.303Z,26.40
2019-06-20T14:59:49.866Z,26.80
2019-06-20T15:02:37.235Z,27.10
2019-06-20T15:04:56.855Z,27.40
2019-06-20T15:07:27.307Z,27.40
2019-06-20T15:09:57.672Z,27.60
2019-06-20T15:12:27.984Z,27.40
2019-06-20T15:14:59.318Z,28.00
2019-06-20T15:17:29.637Z,27.70
2019-06-20T15:19:59.930Z,27.60
2019-06-20T15:22:30.169Z,27.60
2019-06-20T15:25:00.404Z,28.30
2019-06-20T15:27:35.000Z,28.00
2019-06-20T15:30:07.681Z,28.80
2019-06-20T15:32:53.311Z,29.00
2019-06-20T15:35:13.116Z,29.00
2019-06-20T15:37:43.792Z,29.00
2019-06-20T15:40:14.316Z,29.00
2019-06-20T15:42:44.957Z,29.20
2019-06-20T15:45:15.548Z,29.90
2019-06-20T15:47:45.859Z,28.00
2019-06-20T15:50:20.421Z,27.60
2019-06-20T15:52:50.728Z,27.40
2019-06-20T15:55:20.995Z,27.50
2019-06-20T15:57:54.229Z,26.90
2019-06-20T16:00:26.508Z,26.90
2019-06-20T16:03:08.900Z,27.50
2019-06-20T16:05:28.733Z,27.50
2019-06-20T16:07:59.113Z,27.70
2019-06-20T16:10:29.525Z,28.10
2019-06-20T16:13:03.142Z,27.80
2019-06-20T16:15:33.839Z,27.90
2019-06-20T16:18:04.635Z,27.70
2019-06-20T16:20:35.048Z,28.20
2019-06-20T16:23:06.512Z,28.50
2019-06-20T16:25:37.031Z,29.00
2019-06-20T16:28:07.329Z,28.60
2019-06-20T16:30:37.610Z,28.80
2019-06-20T16:33:24.750Z,28.60
2019-06-20T16:35:51.685Z,29.00
2019-06-20T16:38:22.098Z,27.70
2019-06-20T16:40:52.500Z,27.80
2019-06-20T16:43:22.778Z,28.50
2019-06-20T16:45:54.230Z,27.90
2019-06-20T16:48:24.699Z,28.30
2019-06-20T16:50:55.071Z,28.50
2019-06-20T16:53:25.386Z,28.40
2019-06-20T16:55:58.695Z,27.80
2019-06-20T16:58:29.030Z,27.30
2019-06-20T17:01:00.685Z,27.70
2019-06-20T17:03:41.242Z,27.50
2019-06-20T17:06:06.358Z,27.60
2019-06-20T17:08:36.654Z,27.50
2019-06-20T17:11:06.934Z,28.00
2019-06-20T17:13:40.235Z,27.40
2019-06-20T17:16:10.760Z,27.70
2019-06-20T17:18:41.122Z,28.00
2019-06-20T17:21:12.662Z,28.30
2019-06-20T17:23:46.219Z,28.60
2019-06-20T17:26:16.529Z,28.80
2019-06-20T17:28:47.085Z,29.00
2019-06-20T17:31:17.453Z,29.20
2019-06-20T17:33:57.146Z,29.40
2019-06-20T17:36:19.924Z,29.50
2019-06-20T17:38:56.194Z,29.60
2019-06-20T17:41:26.555Z,29.90
2019-06-20T17:43:57.079Z,30.20
2019-06-20T17:46:27.350Z,30.00
2019-06-20T17:48:57.792Z,30.10
2019-06-20T17:51:28.059Z,30.20
2019-06-20T17:53:58.272Z,31.50
2019-06-20T17:56:28.730Z,31.80
2019-06-20T17:58:58.970Z,32.40
2019-06-20T18:01:29.264Z,30.50
2019-06-20T18:04:12.889Z,30.30
2019-06-20T18:06:31.494Z,30.60
2019-06-20T18:09:01.854Z,30.90
2019-06-20T18:11:33.718Z,30.30
2019-06-20T18:14:05.612Z,31.50
2019-06-20T18:16:37.610Z,32.00
2019-06-20T18:19:07.909Z,32.20
2019-06-20T18:21:38.223Z,31.50
2019-06-20T18:24:08.620Z,31.70
2019-06-20T18:26:38.922Z,32.20
2019-06-20T18:29:09.170Z,32.60
2019-06-20T18:31:42.293Z,33.20
2019-06-20T18:34:11.384Z,33.50
2019-06-20T18:36:43.553Z,33.60
2019-06-20T18:39:15.065Z,33.90
2019-06-20T18:41:47.432Z,34.20
2019-06-20T18:44:17.267Z,34.60
2019-06-20T18:46:47.497Z,35.00
2019-06-20T18:49:17.847Z,35.60
2019-06-20T18:51:48.171Z,35.40
2019-06-20T18:54:18.539Z,35.60
2019-06-20T18:56:49.353Z,35.20
2019-06-20T18:59:20.045Z,35.90
2019-06-20T19:01:50.442Z,36.70
2019-06-20T19:04:47.724Z,37.00
2019-06-20T19:07:11.868Z,36.80
2019-06-20T19:09:42.188Z,36.50
2019-06-20T19:12:12.431Z,36.00
2019-06-20T19:15:02.060Z,35.80
2019-06-20T19:17:32.340Z,35.30
2019-06-20T19:20:07.051Z,35.00
2019-06-20T19:22:40.095Z,34.90
2019-06-20T19:25:13.051Z,34.70
2019-06-20T19:27:46.683Z,34.80
2019-06-20T19:30:18.241Z,34.50
2019-06-20T19:32:51.372Z,34.50
2019-06-20T19:35:20.855Z,34.50
2019-06-20T19:37:50.968Z,34.80
2019-06-20T19:40:24.310Z,34.90
2019-06-20T19:42:54.636Z,34.80
2019-06-20T19:45:25.307Z,34.90
2019-06-20T19:48:00.039Z,35.30
2019-06-20T19:50:30.386Z,35.10
2019-06-20T19:53:00.666Z,35.20
2019-06-20T19:55:32.476Z,35.90
2019-06-20T19:58:04.277Z,35.70
2019-06-20T20:00:35.021Z,36.00
2019-06-20T20:03:06.253Z,36.30
2019-06-20T20:05:36.565Z,35.80
2019-06-20T20:08:07.613Z,37.10
2019-06-20T20:10:44.105Z,37.00
2019-06-20T20:13:15.405Z,37.10
2019-06-20T20:15:46.560Z,36.80
2019-06-20T20:18:18.670Z,37.00
2019-06-20T20:20:49.060Z,37.40
2019-06-20T20:23:25.385Z,37.20
2019-06-20T20:25:56.038Z,38.50
2019-06-20T20:28:26.532Z,39.50
2019-06-20T20:30:56.753Z,40.50
2019-06-20T20:33:28.145Z,40.50
2019-06-20T20:36:02.097Z,40.10
2019-06-20T20:38:34.955Z,40.20
2019-06-20T20:41:08.477Z,40.40
2019-06-20T20:43:43.027Z,40.50
2019-06-20T20:46:13.415Z,40.40
2019-06-20T20:48:43.879Z,40.20
2019-06-20T20:51:15.258Z,39.80
2019-06-20T20:53:45.839Z,40.10
2019-06-20T20:56:16.141Z,40.60
2019-06-20T20:58:52.682Z,40.80
2019-06-20T21:01:30.873Z,39.80
2019-06-20T21:04:02.558Z,40.40
2019-06-20T21:06:45.138Z,40.30
2019-06-20T21:09:15.279Z,40.60
2019-06-20T21:11:45.503Z,40.80
2019-06-20T21:14:15.730Z,40.60
2019-06-20T21:16:45.954Z,40.00
2019-06-20T21:19:16.184Z,41.60
2019-06-20T21:21:46.408Z,40.50
2019-06-20T21:24:24.307Z,41.50
2019-06-20T21:27:00.368Z,42.30
2019-06-20T21:29:50.061Z,42.30
2019-06-20T21:32:20.657Z,42.40
2019-06-20T21:34:50.938Z,42.40
2019-06-20T21:37:21.184Z,42.30
2019-06-20T21:39:51.591Z,42.50
2019-06-20T21:42:21.878Z,42.40
2019-06-20T21:44:52.128Z,42.60
2019-06-20T21:47:23.537Z,43.00
2019-06-20T21:49:55.379Z,43.80
2019-06-20T21:52:25.784Z,43.80
2019-06-20T21:54:56.088Z,43.60
2019-06-20T21:57:30.804Z,43.80
2019-06-20T22:00:01.611Z,44.30
2019-06-20T22:02:33.484Z,44.40
2019-06-20T22:05:06.092Z,44.90
2019-06-20T22:07:37.907Z,45.80
2019-06-20T22:10:08.330Z,46.40
2019-06-20T22:12:38.786Z,47.00
2019-06-20T22:15:09.683Z,47.40
2019-06-20T22:17:41.014Z,47.40
2019-06-20T22:20:11.722Z,47.80
2019-06-20T22:22:42.388Z,47.80
2019-06-20T22:25:14.307Z,48.00
2019-06-20T22:27:46.930Z,47.80
2019-06-20T22:30:20.211Z,47.50
2019-06-20T22:32:49.652Z,47.30
2019-06-20T22:35:20.782Z,47.10
2019-06-20T22:37:51.133Z,47.30
2019-06-20T22:40:21.428Z,47.00
2019-06-20T22:42:51.804Z,47.10
2019-06-20T22:45:22.119Z,47.30
2019-06-20T22:47:52.857Z,47.80
2019-06-20T22:50:23.218Z,47.40
2019-06-20T22:52:55.979Z,47.20
2019-06-20T22:55:26.368Z,46.80
2019-06-20T22:57:57.240Z,47.00
2019-06-20T23:00:27.572Z,47.30
2019-06-20T23:03:06.752Z,47.10
2019-06-20T23:05:37.052Z,46.90
2019-06-20T23:08:07.496Z,47.30
2019-06-20T23:10:37.784Z,47.70
2019-06-20T23:13:09.805Z,48.20
2019-06-20T23:15:40.296Z,49.10
2019-06-20T23:18:10.616Z,49.30
2019-06-20T23:21:03.664Z,49.40
2019-06-20T23:23:23.258Z,49.50
2019-06-20T23:25:58.339Z,49.80
2019-06-20T23:28:31.311Z,50.50
2019-06-20T23:31:04.688Z,50.70
2019-06-20T23:33:43.901Z,51.20
2019-06-20T23:36:14.262Z,50.90
2019-06-20T23:38:52.046Z,50.90
2019-06-20T23:44:20.307Z,51.30
2019-06-20T23:49:40.368Z,51.50
2019-06-20T23:52:12.371Z,51.60
2019-06-20T23:54:43.052Z,51.60
2019-06-20T23:57:13.488Z,52.30
2019-06-20T23:59:43.869Z,52.40
